• Join FlightAware (Why Join?)
  • Login
  • US Flag 
11:51AM EST


 

Airport Tracker/Info


-or-


 

Live Flight TrackerFlight Track Log ✈ FD412 ✈ 15-Jun-2013 ✈ YBMK / MKY - YBTL / TSV

Flight Track Log - Related Links

Times and Time Zones

All times are in EDT time to prevent confusion due to time zone crossing. See the FD412 flight status page for this flight to view local times or setup timezone preferences in your user account.

Time Position Orientation Groundspeed Altitude Reporting Facility
EDT Latitude Longitude Course Direction KTS MPH feet Rate Location/Type
02:48AM -21.0496 149.0235 310° West  Level FlightAware Approximate
02:49AM -21.0089 148.9715 310° West  Level FlightAware Approximate
02:50AM -20.9682 148.9195 310° West  Level FlightAware Approximate
02:51AM -20.9274 148.8675 310° West  Level FlightAware Approximate
02:52AM -20.8867 148.8156 310° West  Level FlightAware Approximate
02:53AM -20.8459 148.7637 310° West  Level FlightAware Approximate
02:54AM -20.8051 148.7118 310° West  Level FlightAware Approximate
02:55AM -20.7643 148.6599 310° West  Level FlightAware Approximate
02:56AM -20.7235 148.6081 310° West  Level FlightAware Approximate
02:57AM -20.6826 148.5563 310° West  Level FlightAware Approximate
02:58AM -20.6418 148.5045 310° West  Level FlightAware Approximate
02:59AM -20.5977 148.4487 310° West  Level FlightAware Approximate
03:00AM -20.5569 148.3970 310° West  Level FlightAware Approximate
03:00AM -20.7370 148.6280 310° West 189 217 20,000  Level FlightAware
03:01AM -20.5161 148.3452 310° West  Level FlightAware Approximate
03:01AM -20.7000 148.5800 309° West 234 269 19,200  Level FlightAware
03:02AM -20.6840 148.5600 311° West 241 277 18,800 -300 Descending FlightAware
03:02AM -20.6630 148.5330 310° West 241 277 18,800  Level FlightAware
03:03AM -20.6330 148.4950 310° West 241 277 18,800  Level FlightAware
03:04AM -20.6110 148.4670 310° West 241 277 18,800  Level FlightAware
03:05AM -20.5820 148.4300 310° West 241 277 18,800 -1,380 Level FlightAware
03:05AM -20.5160 148.3450 310° West 15,100 -1,740 Descending FlightAware
03:07AM -20.4090 148.2090 310° West 231 266 14,000 -420 Descending FlightAware
03:08AM -20.3830 148.1770 311° West 229 264 14,000  Level FlightAware
03:09AM -20.3560 148.1430 310° West 227 261 14,000  Level FlightAware
03:09AM -20.3220 148.0990 309° West 227 261 14,000  Level FlightAware
03:10AM -20.2960 148.0670 311° West 227 261 14,000  Level FlightAware
03:11AM -20.2630 148.0250 310° West 229 264 14,000  Level FlightAware
03:12AM -20.2220 147.9740 311° West 229 264 14,000  Level FlightAware
03:13AM -20.2020 147.9480 309° West 229 264 14,000  Level FlightAware
03:14AM -20.1530 147.8880 311° West 228 262 14,000  Level FlightAware
03:14AM -20.1290 147.8570 310° West 229 264 14,000  Level FlightAware
03:15AM -20.0800 147.7950 310° West 227 261 14,000  Level FlightAware
03:17AM -20.0300 147.7330 311° West 230 265 14,000  Level FlightAware
03:17AM -20.0090 147.7070 311° West 231 266 14,000  Level FlightAware
03:18AM -19.9730 147.6610 310° West 230 265 14,000  Level FlightAware
03:19AM -19.9450 147.6270 311° West 231 266 14,000  Level FlightAware
03:19AM -19.9410 147.6210 305° West 231 266 14,000  Level FlightAware
03:20AM -19.9150 147.5890 311° West 231 266 14,000  Level FlightAware
03:21AM -19.8940 147.5620 310° West 231 266 14,000  Level FlightAware
03:21AM -19.8270 147.4800 311° West 14,000  Level FlightAware
03:22AM -19.8010 147.4470 310° West 231 266 14,000  Level FlightAware
03:23AM -19.7620 147.3980 310° West 230 265 14,000  Level FlightAware
03:24AM -19.7410 147.3710 310° West 230 265 14,000  Level FlightAware
03:25AM -19.7130 147.3360 310° West 230 265 14,000  Level FlightAware
03:27AM -19.6305 147.2339 311° West  Level FlightAware Approximate
03:28AM -19.5892 147.1828 311° West  Level FlightAware Approximate
03:29AM -19.5479 147.1318 311° West  Level FlightAware Approximate
03:30AM -19.5066 147.0808 311° West  Level FlightAware Approximate
03:31AM -19.4652 147.0299 311° West  Level FlightAware Approximate
03:32AM -19.4239 146.9790 311° West  Level FlightAware Approximate
03:33AM -19.3825 146.9281 311° West  Level FlightAware Approximate
03:34AM -19.3412 146.8772 311° West  Level FlightAware Approximate
03:35AM -19.2998 146.8263 311° West  Level FlightAware Approximate
03:36AM -19.2584 146.7755 311° West  Level FlightAware Approximate
03:37AM -19.2525 146.7653 310° West  Level Estimated
03:38AM -19.2525 146.7653 310° West  Level Estimated
03:39AM -19.2525 146.7653 310° West  Level Estimated
03:40AM -19.2525 146.7653 310° West  Level Estimated
03:41AM -19.2525 146.7653 310° West  Level Estimated
03:42AM -19.2525 146.7653 310° West  Level Estimated
03:43AM -19.2525 146.7653 310° West  Level Estimated
03:44AM -19.2525 146.7653 310° West  Level Estimated
03:45AM -19.2525 146.7653 310° West  Level Estimated
03:46AM -19.2525 146.7653 310° West  Level Estimated
03:47AM -19.2525 146.7653 310° West  Level Estimated
03:48AM -19.2525 146.7653 310° West  Level Estimated